Time;durP1;ratioP1;P1;durP2;ratioP2;P2;SDS_P1;SDS_P2;PMS_P1;PMS_P2;Temp;Humidity;BMP_temperature;BMP_pressure;BME280_temperature;BME280_humidity;BME280_pressure;Samples;Min_cycle;Max_cycle;Signal;HPM_P1;HPM_P2
2023/04/06 00:01:59;;;;;;;;;6.00;5.20;;;;;1.70;56.76;100134.88;5116562;28;8840;-60
2023/04/06 00:04:27;;;;;;;;;6.80;6.20;;;;;1.70;56.90;100133.13;5115904;28;8924;-61
2023/04/06 00:06:56;;;;;;;;;6.60;6.40;;;;;1.69;56.46;100131.41;5116160;28;8828;-59
2023/04/06 00:09:23;;;;;;;;;6.00;5.20;;;;;1.69;56.78;100128.78;5116391;28;8850;-60
2023/04/06 00:11:51;;;;;;;;;7.00;6.00;;;;;1.66;56.58;100131.50;5116195;28;8880;-60
2023/04/06 00:14:19;;;;;;;;;6.60;6.00;;;;;1.64;56.74;100129.88;5116605;28;8850;-60
2023/04/06 00:16:47;;;;;;;;;7.00;6.20;;;;;1.61;56.38;100130.84;5116643;28;9493;-60
2023/04/06 00:19:15;;;;;;;;;4.80;4.80;;;;;1.59;56.70;100122.19;5115911;28;8807;-59
2023/04/06 00:21:43;;;;;;;;;4.80;4.80;;;;;1.55;57.05;100128.50;5115848;28;8824;-58
2023/04/06 00:24:11;;;;;;;;;6.00;3.60;;;;;1.55;57.22;100123.25;5115816;28;8903;-61
2023/04/06 00:26:39;;;;;;;;;6.20;4.00;;;;;1.53;57.04;100124.22;5115747;28;8831;-58
2023/04/06 00:29:07;;;;;;;;;7.00;4.40;;;;;1.52;56.58;100123.34;5114729;28;8819;-60
2023/04/06 00:31:35;;;;;;;;;5.60;5.60;;;;;1.51;56.69;100111.16;5114838;28;8823;-60
2023/04/06 00:34:03;;;;;;;;;7.00;7.00;;;;;1.53;57.13;100114.56;5114696;28;8840;-60
2023/04/06 00:36:31;;;;;;;;;7.00;7.00;;;;;1.53;56.98;100113.72;5115360;28;8836;-59
2023/04/06 00:38:59;;;;;;;;;2.60;1.80;;;;;1.51;56.60;100112.94;5115418;28;8820;-60
2023/04/06 00:41:27;;;;;;;;;9.00;7.40;;;;;1.50;56.98;100105.94;5115702;28;8866;-59
2023/04/06 00:43:54;;;;;;;;;5.20;4.00;;;;;1.47;57.04;100104.34;5116626;28;8831;-60
2023/04/06 00:46:22;;;;;;;;;10.00;9.40;;;;;1.46;57.44;100097.34;5115721;28;8832;-58
2023/04/06 00:48:50;;;;;;;;;6.00;4.00;;;;;1.46;56.98;100092.09;5115729;28;9521;-57
2023/04/06 00:51:18;;;;;;;;;9.60;9.60;;;;;1.47;56.38;100096.47;5119034;28;8886;-58
2023/04/06 00:53:46;;;;;;;;;7.00;7.00;;;;;1.48;56.55;100086.81;5119676;28;8812;-58
2023/04/06 00:56:14;;;;;;;;;6.00;6.00;;;;;1.51;56.93;100084.09;5119468;28;8859;-58
2023/04/06 00:58:42;;;;;;;;;7.80;7.40;;;;;1.57;57.22;100084.66;5119100;28;8831;-58
2023/04/06 01:01:09;;;;;;;;;6.20;6.20;;;;;1.61;57.12;100088.03;5119683;28;8858;-60
2023/04/06 01:03:37;;;;;;;;;6.20;4.40;;;;;1.61;56.76;100080.16;5119495;28;8805;-59
2023/04/06 01:06:05;;;;;;;;;7.40;6.40;;;;;1.60;56.96;100078.44;5119379;28;8824;-58
2023/04/06 01:08:34;;;;;;;;;7.40;7.40;;;;;1.61;56.34;100070.50;5119057;28;8832;-57
2023/04/06 01:11:01;;;;;;;;;7.40;7.00;;;;;1.66;56.71;100078.19;5119393;28;8832;-58
2023/04/06 01:13:29;;;;;;;;;4.40;3.80;;;;;1.67;56.83;100065.00;5119190;28;8834;-60
2023/04/06 01:15:57;;;;;;;;;11.20;9.20;;;;;1.68;56.81;100068.50;5119126;28;8820;-60
2023/04/06 01:18:25;;;;;;;;;8.60;8.20;;;;;1.65;56.56;100072.09;5119221;28;8910;-60
2023/04/06 01:20:53;;;;;;;;;7.60;7.40;;;;;1.62;56.61;100073.97;5119015;28;8820;-59
2023/04/06 01:23:20;;;;;;;;;6.40;6.40;;;;;1.57;56.88;100060.19;5119023;28;8831;-60
2023/04/06 01:25:48;;;;;;;;;6.40;6.40;;;;;1.53;56.85;100061.25;5118904;28;8835;-58
2023/04/06 01:28:16;;;;;;;;;4.00;3.20;;;;;1.48;57.25;100052.72;5119089;28;8808;-59
2023/04/06 01:30:44;;;;;;;;;1.80;1.80;;;;;1.42;57.49;100060.81;5118542;28;8831;-61
2023/04/06 01:33:12;;;;;;;;;4.00;4.00;;;;;1.37;57.22;100053.16;5118449;28;8832;-58
2023/04/06 01:35:39;;;;;;;;;7.00;6.20;;;;;1.31;57.36;100048.13;5118971;28;9509;-58
2023/04/06 01:38:07;;;;;;;;;7.00;6.80;;;;;1.27;57.69;100049.19;5118405;28;8824;-58
2023/04/06 01:40:35;;;;;;;;;6.60;6.00;;;;;1.23;57.64;100042.34;5118692;28;8840;-57
2023/04/06 01:43:03;;;;;;;;;7.40;6.80;;;;;1.20;57.77;100047.75;5118531;28;8805;-61
2023/04/06 01:45:31;;;;;;;;;6.20;6.20;;;;;1.18;57.80;100043.47;5118525;28;8873;-58
2023/04/06 01:47:58;;;;;;;;;7.20;6.40;;;;;1.16;57.55;100040.91;5118495;28;9517;-58
2023/04/06 01:50:26;;;;;;;;;3.80;3.80;;;;;1.14;58.10;100040.09;5118181;28;8824;-60
2023/04/06 01:52:54;;;;;;;;;7.20;6.00;;;;;1.12;57.89;100043.69;5118543;28;8836;-59
2023/04/06 01:55:22;;;;;;;;;6.20;6.00;;;;;1.09;57.77;100038.59;5118394;28;8820;-60
2023/04/06 01:57:50;;;;;;;;;6.60;5.20;;;;;1.07;57.77;100040.44;5117820;28;8800;-58
2023/04/06 02:00:18;;;;;;;;;6.40;6.00;;;;;1.04;57.71;100040.53;5117559;28;8800;-58
2023/04/06 02:02:46;;;;;;;;;7.00;6.00;;;;;1.01;58.05;100035.44;5116691;28;8897;-60
2023/04/06 02:05:14;;;;;;;;;6.60;6.60;;;;;1.00;58.28;100034.56;5118123;28;8820;-60
2023/04/06 02:07:42;;;;;;;;;7.80;6.80;;;;;0.97;57.96;100029.44;5118094;28;8827;-58
2023/04/06 02:10:09;;;;;;;;;14.60;12.20;;;;;0.96;57.69;100029.50;5118108;28;8927;-60
2023/04/06 02:12:37;;;;;;;;;5.60;5.60;;;;;0.95;57.93;100026.03;5118122;28;8856;-60
2023/04/06 02:15:05;;;;;;;;;8.60;7.00;;;;;0.96;57.97;100032.13;5117927;28;8924;-60
2023/04/06 02:17:33;;;;;;;;;8.60;7.80;;;;;0.97;57.79;100023.34;5118234;28;9494;-60
2023/04/06 02:20:00;;;;;;;;;6.40;6.40;;;;;0.96;58.41;100033.00;5117545;28;8819;-58
2023/04/06 02:22:28;;;;;;;;;6.00;6.00;;;;;0.93;57.70;100033.09;5117614;28;8812;-60
2023/04/06 02:24:56;;;;;;;;;9.40;9.40;;;;;0.93;58.00;100035.72;5117691;28;8916;-60
2023/04/06 02:27:24;;;;;;;;;6.60;6.60;;;;;0.92;58.45;100034.00;5117474;28;8847;-60
2023/04/06 02:29:52;;;;;;;;;6.80;6.00;;;;;0.91;57.83;100032.31;5117521;28;8831;-60
2023/04/06 02:32:19;;;;;;;;;6.60;6.60;;;;;0.91;58.46;100029.69;5117357;28;8816;-60
2023/04/06 02:34:49;;;;;;;;;8.60;6.80;;;;;0.90;58.07;100022.75;5117132;28;8824;-60
2023/04/06 02:37:17;;;;;;;;;8.80;7.40;;;;;0.88;58.22;100024.56;5117536;28;8831;-58
2023/04/06 02:39:44;;;;;;;;;9.60;7.00;;;;;0.86;58.11;100018.53;5117480;28;8843;-59
2023/04/06 02:42:13;;;;;;;;;6.40;6.00;;;;;0.85;58.70;100024.69;5117529;28;8840;-60
2023/04/06 02:44:40;;;;;;;;;10.00;7.00;;;;;0.84;58.65;100022.97;5117710;28;8840;-60
2023/04/06 02:47:08;;;;;;;;;7.80;6.40;;;;;0.83;57.94;100028.31;5117371;28;8804;-58
2023/04/06 02:49:36;;;;;;;;;10.80;8.20;;;;;0.82;58.26;100026.56;5116967;28;8840;-60
2023/04/06 02:52:03;;;;;;;;;8.60;7.40;;;;;0.80;58.13;100025.78;5117279;28;8913;-58
2023/04/06 02:54:31;;;;;;;;;9.00;7.40;;;;;0.80;58.26;100031.03;5117070;28;8839;-60
2023/04/06 02:57:00;;;;;;;;;9.40;7.80;;;;;0.79;58.62;100019.72;5117144;28;8864;-61
2023/04/06 02:59:28;;;;;;;;;8.20;8.20;;;;;0.79;58.85;100024.06;5116333;28;8826;-59
2023/04/06 03:01:55;;;;;;;;;10.00;9.00;;;;;0.79;58.52;100024.94;5117073;28;8942;-61
2023/04/06 03:04:25;;;;;;;;;7.60;4.80;;;;;0.78;59.02;100027.63;5117049;28;8812;-60
2023/04/06 03:06:53;;;;;;;;;5.40;5.00;;;;;0.77;58.13;100025.91;5117399;28;8828;-57
2023/04/06 03:09:20;;;;;;;;;9.00;7.40;;;;;0.75;58.19;100020.72;5116988;28;8916;-60
2023/04/06 03:11:48;;;;;;;;;5.20;4.80;;;;;0.73;58.42;100021.69;5117130;28;8843;-60
2023/04/06 03:14:17;;;;;;;;;9.20;9.20;;;;;0.71;58.53;100021.75;5116355;28;8841;-60
2023/04/06 03:16:45;;;;;;;;;2.40;2.40;;;;;0.70;58.63;100025.28;5116720;28;8808;-58
2023/04/06 03:19:13;;;;;;;;;9.40;9.00;;;;;0.69;59.35;100023.56;5117276;28;9544;-60
2023/04/06 03:21:41;;;;;;;;;7.60;6.20;;;;;0.70;58.95;100021.81;5116945;28;8832;-59
2023/04/06 03:24:08;;;;;;;;;10.80;9.80;;;;;0.69;58.79;100027.97;5117390;28;8816;-60
2023/04/06 03:26:36;;;;;;;;;7.00;5.80;;;;;0.69;59.00;100020.97;5117079;28;9536;-58
2023/04/06 03:29:04;;;;;;;;;6.40;6.00;;;;;0.68;58.97;100027.13;5116205;28;8800;-58
2023/04/06 03:31:32;;;;;;;;;4.40;4.00;;;;;0.64;58.89;100020.31;5116405;28;8836;-60
2023/04/06 03:34:00;;;;;;;;;6.20;6.00;;;;;0.65;59.01;100022.00;5116443;28;8819;-60
2023/04/06 03:36:28;;;;;;;;;9.80;8.60;;;;;0.65;59.21;100015.91;5116534;28;8835;-60
2023/04/06 03:38:55;;;;;;;;;10.60;9.80;;;;;0.66;58.79;100018.47;5116506;28;8835;-58
2023/04/06 03:41:23;;;;;;;;;9.80;9.00;;;;;0.68;58.74;100018.41;5116035;28;8851;-60
2023/04/06 03:43:51;;;;;;;;;7.80;6.20;;;;;0.69;59.08;100022.75;5116483;28;8858;-60
2023/04/06 03:46:19;;;;;;;;;6.00;4.40;;;;;0.68;58.82;100015.81;5115828;28;9736;-57
2023/04/06 03:48:46;;;;;;;;;6.60;6.40;;;;;0.66;58.62;100015.84;5115735;28;8836;-58
2023/04/06 03:51:14;;;;;;;;;3.80;3.00;;;;;0.67;59.24;100019.31;5115327;28;8824;-57
2023/04/06 03:53:42;;;;;;;;;6.60;6.60;;;;;0.66;58.96;100010.59;5114973;28;8854;-59
2023/04/06 03:56:10;;;;;;;;;8.20;8.20;;;;;0.66;58.88;100022.84;5115364;28;8867;-60
2023/04/06 03:58:37;;;;;;;;;6.20;5.20;;;;;0.67;58.93;100019.31;5115251;28;8855;-60
2023/04/06 04:01:06;;;;;;;;;3.40;0.80;;;;;0.67;58.84;100020.16;5115528;28;8820;-57
2023/04/06 04:03:34;;;;;;;;;4.40;4.40;;;;;0.65;59.00;100014.16;5115468;28;8836;-58
2023/04/06 04:06:02;;;;;;;;;8.20;7.80;;;;;0.65;58.69;100021.13;5115603;28;8827;-59
2023/04/06 04:08:30;;;;;;;;;6.40;6.00;;;;;0.63;58.95;100023.81;5115882;28;8819;-59
2023/04/06 04:10:57;;;;;;;;;7.40;6.40;;;;;0.63;59.08;100030.81;5115894;28;8854;-60
2023/04/06 04:13:25;;;;;;;;;7.00;7.00;;;;;0.60;58.69;100023.94;5115844;28;8893;-60
2023/04/06 04:15:53;;;;;;;;;6.60;5.60;;;;;0.60;58.90;100029.19;5115531;28;8832;-59
2023/04/06 04:18:21;;;;;;;;;8.80;7.80;;;;;0.59;58.80;100022.22;5115729;28;8808;-59
2023/04/06 04:20:48;;;;;;;;;5.60;4.00;;;;;0.59;59.25;100022.22;5115137;28;9497;-58
2023/04/06 04:23:16;;;;;;;;;4.00;4.00;;;;;0.59;59.07;100029.22;5115185;28;8824;-59
2023/04/06 04:25:45;;;;;;;;;8.60;6.00;;;;;0.57;59.06;100029.31;5118269;28;8836;-58
2023/04/06 04:28:12;;;;;;;;;6.00;6.00;;;;;0.57;59.15;100034.53;5119400;28;8824;-59
2023/04/06 04:30:40;;;;;;;;;7.60;6.60;;;;;0.57;59.48;100021.44;5119211;28;8831;-59
2023/04/06 04:33:08;;;;;;;;;7.00;7.00;;;;;0.57;59.11;100028.44;5119175;28;8926;-60
2023/04/06 04:35:36;;;;;;;;;7.00;6.20;;;;;0.55;59.31;100025.88;5119143;28;8816;-58
2023/04/06 04:38:03;;;;;;;;;7.00;6.20;;;;;0.54;59.25;100024.16;5119229;28;8835;-59
2023/04/06 04:40:31;;;;;;;;;3.60;3.60;;;;;0.54;59.23;100025.94;5119598;28;8858;-57
2023/04/06 04:42:59;;;;;;;;;5.60;4.00;;;;;0.53;59.51;100024.25;5118847;28;8836;-60
2023/04/06 04:45:27;;;;;;;;;6.40;6.00;;;;;0.54;59.37;100023.31;5119347;28;8834;-60
2023/04/06 04:47:55;;;;;;;;;9.00;8.20;;;;;0.55;59.56;100022.41;5118885;28;9599;-58
2023/04/06 04:50:23;;;;;;;;;6.00;4.00;;;;;0.57;59.15;100018.81;5119028;28;8974;-59
2023/04/06 04:52:51;;;;;;;;;6.20;6.20;;;;;0.58;59.05;100023.16;5118913;28;8839;-58
2023/04/06 04:55:18;;;;;;;;;6.00;5.20;;;;;0.57;59.71;100018.81;5119065;28;8836;-59
2023/04/06 04:57:46;;;;;;;;;3.00;3.00;;;;;0.54;59.36;100018.91;5119109;28;8843;-60
2023/04/06 05:00:14;;;;;;;;;6.80;6.80;;;;;0.50;59.53;100017.34;5118893;28;8836;-58
2023/04/06 05:02:42;;;;;;;;;6.60;6.20;;;;;0.46;59.74;100015.75;5118413;28;9512;-59
2023/04/06 05:05:09;;;;;;;;;9.00;7.40;;;;;0.46;59.70;100014.91;5118447;28;8812;-59
2023/04/06 05:07:38;;;;;;;;;6.60;6.20;;;;;0.48;59.60;100008.69;5118418;28;8820;-61
2023/04/06 05:10:06;;;;;;;;;7.00;6.80;;;;;0.52;59.25;100012.91;5118208;28;8840;-60
2023/04/06 05:12:33;;;;;;;;;8.60;7.40;;;;;0.57;59.50;100020.56;5118283;28;8856;-59
2023/04/06 05:15:01;;;;;;;;;6.00;4.40;;;;;0.62;59.07;100021.25;5117558;28;8839;-61
2023/04/06 05:17:29;;;;;;;;;3.40;3.20;;;;;0.68;59.29;100019.25;5117089;28;8828;-58
2023/04/06 05:19:56;;;;;;;;;4.00;3.00;;;;;0.73;58.85;100012.06;5117291;28;8828;-58
2023/04/06 05:22:25;;;;;;;;;12.00;7.80;;;;;0.77;59.17;100013.66;5117317;28;8832;-59
2023/04/06 05:24:52;;;;;;;;;6.40;6.20;;;;;0.83;58.76;100012.59;5117587;28;8844;-60
2023/04/06 05:27:20;;;;;;;;;6.40;5.20;;;;;0.88;58.88;100008.84;5117428;28;8839;-60
2023/04/06 05:29:48;;;;;;;;;7.00;6.20;;;;;0.94;58.63;100015.63;5117963;28;8815;-59
2023/04/06 05:32:16;;;;;;;;;6.60;6.00;;;;;0.98;58.81;100014.59;5118052;28;8878;-60
2023/04/06 05:34:44;;;;;;;;;4.80;4.80;;;;;1.03;58.99;100005.63;5117882;28;8856;-60
2023/04/06 05:37:12;;;;;;;;;4.40;4.40;;;;;1.07;58.31;100011.59;5117595;28;8838;-60
2023/04/06 05:39:40;;;;;;;;;4.40;4.40;;;;;1.12;58.30;100010.50;5117656;28;8834;-57
2023/04/06 05:42:07;;;;;;;;;7.40;6.80;;;;;1.16;58.78;100009.44;5117603;28;9665;-60
2023/04/06 05:44:35;;;;;;;;;7.00;6.60;;;;;1.24;58.28;100015.25;5117660;28;8818;-58
2023/04/06 05:47:03;;;;;;;;;3.40;2.60;;;;;1.31;57.96;100011.44;5117461;28;8885;-58
2023/04/06 05:49:30;;;;;;;;;10.00;9.20;;;;;1.40;58.20;100016.31;5117180;28;8820;-60
2023/04/06 05:52:00;;;;;;;;;5.80;5.60;;;;;1.48;58.00;100006.34;5117494;28;9513;-58
2023/04/06 05:54:27;;;;;;;;;1.00;0.40;;;;;1.60;57.40;100011.06;5116032;28;8828;-60
2023/04/06 05:56:55;;;;;;;;;3.40;3.40;;;;;1.71;58.15;100014.09;5116585;28;8839;-61
2023/04/06 05:59:23;;;;;;;;;8.60;7.00;;;;;1.81;57.62;100009.31;5116864;28;8844;-60
2023/04/06 06:01:51;;;;;;;;;12.60;10.40;;;;;1.93;57.80;100009.63;5116791;28;8921;-59
2023/04/06 06:04:19;;;;;;;;;8.00;8.00;;;;;2.05;57.35;100008.25;5116705;28;8812;-58
2023/04/06 06:06:47;;;;;;;;;7.60;6.80;;;;;2.17;56.63;99998.03;5117060;28;8828;-61
2023/04/06 06:09:14;;;;;;;;;7.00;7.00;;;;;2.32;56.74;100001.72;5115888;28;8839;-59
2023/04/06 06:11:42;;;;;;;;;9.40;9.40;;;;;2.46;56.27;99994.06;5116908;28;9549;-58
2023/04/06 06:14:10;;;;;;;;;5.20;5.20;;;;;2.65;56.37;99997.56;5117486;28;8874;-60
2023/04/06 06:16:38;;;;;;;;;6.40;6.00;;;;;2.85;55.64;99992.19;5116740;28;8815;-58
2023/04/06 06:19:06;;;;;;;;;10.40;7.40;;;;;3.04;55.40;99993.03;5115938;28;8835;-60
2023/04/06 06:21:34;;;;;;;;;9.20;7.00;;;;;3.23;55.72;99993.81;5114825;28;8844;-60
2023/04/06 06:24:02;;;;;;;;;6.00;4.00;;;;;3.38;55.60;99986.03;5114124;28;8859;-60
2023/04/06 06:26:30;;;;;;;;;6.60;6.60;;;;;3.54;55.03;99986.13;5115388;28;8839;-61
2023/04/06 06:28:58;;;;;;;;;8.20;5.40;;;;;3.68;54.57;99984.50;5115730;28;8854;-60
2023/04/06 06:31:26;;;;;;;;;10.40;10.00;;;;;3.82;54.59;99984.66;5115944;28;8839;-60
2023/04/06 06:33:53;;;;;;;;;16.40;16.00;;;;;3.96;54.71;99980.34;5115698;28;8886;-59
2023/04/06 06:36:22;;;;;;;;;8.40;8.40;;;;;4.09;54.57;99988.44;5115765;28;8820;-59
2023/04/06 06:38:50;;;;;;;;;8.60;7.40;;;;;4.22;54.28;99993.00;5116094;28;8827;-60
2023/04/06 06:41:17;;;;;;;;;6.20;6.20;;;;;4.37;54.16;99996.59;5116390;28;8847;-60
2023/04/06 06:43:45;;;;;;;;;8.80;8.80;;;;;4.52;53.71;99994.00;5116158;28;8815;-61
2023/04/06 06:46:13;;;;;;;;;8.20;4.00;;;;;4.62;53.56;99989.06;5116034;28;8836;-60
2023/04/06 06:48:41;;;;;;;;;7.00;4.00;;;;;4.74;53.37;99983.13;5115535;28;8808;-61
2023/04/06 06:51:09;;;;;;;;;7.00;6.40;;;;;4.86;53.73;99985.91;5116100;28;8889;-59
2023/04/06 06:53:37;;;;;;;;;6.20;5.40;;;;;5.00;53.31;99987.78;5115763;28;8816;-60
2023/04/06 06:56:05;;;;;;;;;5.40;4.80;;;;;5.14;53.28;99982.56;5115459;28;9540;-61
2023/04/06 06:58:34;;;;;;;;;10.80;10.20;;;;;5.29;52.70;99976.41;5116156;28;8828;-60
2023/04/06 07:01:04;;;;;;;;;12.00;9.80;;;;;5.45;52.97;99975.44;5116347;28;8828;-58
2023/04/06 07:03:32;;;;;;;;;6.60;6.00;;;;;5.58;52.66;99984.34;5115765;28;8897;-59
2023/04/06 07:06:01;;;;;;;;;4.80;4.40;;;;;5.69;52.64;99968.72;5115530;28;8928;-58
2023/04/06 07:08:28;;;;;;;;;8.00;7.40;;;;;5.82;51.98;99969.72;5115728;28;8839;-61
2023/04/06 07:10:56;;;;;;;;;6.00;6.00;;;;;5.97;52.37;99970.59;5115902;28;8840;-60
2023/04/06 07:13:26;;;;;;;;;9.60;9.00;;;;;6.12;52.09;99969.66;5114777;28;8836;-60
2023/04/06 07:15:54;;;;;;;;;6.00;6.00;;;;;6.28;51.42;99960.69;5115154;28;8832;-59
2023/04/06 07:18:22;;;;;;;;;5.20;3.40;;;;;6.45;51.74;99962.28;5115413;28;8978;-59
2023/04/06 07:20:50;;;;;;;;;12.40;12.40;;;;;6.62;51.30;99964.72;5115118;28;8854;-60
2023/04/06 07:23:18;;;;;;;;;10.40;10.00;;;;;6.78;51.17;99954.88;5114837;28;8828;-60
2023/04/06 07:25:46;;;;;;;;;10.20;9.80;;;;;6.93;50.69;99952.09;5114683;28;9712;-60
2023/04/06 07:28:14;;;;;;;;;12.60;12.00;;;;;7.09;50.91;99944.84;5114360;28;8816;-62
2023/04/06 07:30:42;;;;;;;;;10.00;9.60;;;;;7.24;50.31;99957.09;5114762;28;8851;-59
2023/04/06 07:33:10;;;;;;;;;8.60;7.80;;;;;7.40;50.38;99952.47;5114652;28;8850;-59
2023/04/06 07:35:39;;;;;;;;;6.60;5.20;;;;;7.54;50.31;99951.53;5114666;28;8867;-61
2023/04/06 07:38:07;;;;;;;;;10.40;9.00;;;;;7.68;50.11;99954.97;5114982;28;9552;-61
2023/04/06 07:40:37;;;;;;;;;8.60;8.60;;;;;7.79;50.05;99942.69;5114999;28;9651;-60
2023/04/06 07:43:05;;;;;;;;;8.60;7.00;;;;;7.91;49.41;99947.13;5115454;28;8840;-61
2023/04/06 07:45:33;;;;;;;;;9.00;7.00;;;;;8.00;49.86;99938.53;5115259;28;9564;-60
2023/04/06 07:48:01;;;;;;;;;4.00;4.00;;;;;8.13;49.30;99939.38;5115119;28;8812;-60
2023/04/06 07:50:29;;;;;;;;;6.00;6.00;;;;;8.28;49.57;99935.69;5114818;28;8920;-59
2023/04/06 07:52:57;;;;;;;;;10.00;9.00;;;;;8.41;48.99;99925.06;5114683;28;8844;-59
2023/04/06 07:55:25;;;;;;;;;8.20;8.20;;;;;8.51;48.97;99932.25;5114293;28;8855;-60
2023/04/06 07:57:53;;;;;;;;;9.80;7.40;;;;;8.63;48.63;99935.84;5114543;28;9620;-58
2023/04/06 08:00:21;;;;;;;;;9.00;9.00;;;;;8.75;48.67;99927.84;5115367;28;9516;-59
2023/04/06 08:02:49;;;;;;;;;12.80;10.00;;;;;8.86;48.11;99929.72;5117752;28;8855;-59
2023/04/06 08:05:19;;;;;;;;;11.60;11.60;;;;;9.00;48.27;99929.56;5098705;28;8841;-61
2023/04/06 08:07:47;;;;;;;;;10.00;9.00;;;;;9.11;48.27;99927.81;5099324;28;8845;-60
2023/04/06 08:10:15;;;;;;;;;7.00;6.60;;;;;9.21;47.40;99926.19;5118619;28;8816;-62
2023/04/06 08:12:43;;;;;;;;;12.20;11.20;;;;;9.29;47.62;99926.47;5118819;28;8931;-61
2023/04/06 08:15:12;;;;;;;;;9.80;8.60;;;;;9.39;47.19;99926.59;5119499;28;9608;-61
2023/04/06 08:17:40;;;;;;;;;7.00;6.00;;;;;9.47;47.18;99926.88;5118534;28;8858;-60
2023/04/06 08:20:08;;;;;;;;;7.40;6.80;;;;;9.59;46.86;99931.28;5118951;28;8836;-60
2023/04/06 08:22:36;;;;;;;;;9.00;7.50;;;;;9.69;46.99;99919.81;5118118;28;8832;-59
2023/04/06 08:25:04;;;;;;;;;6.00;5.50;;;;;9.81;46.54;99926.84;5117016;28;8928;-60
2023/04/06 08:27:33;;;;;;;;;9.00;9.00;;;;;9.87;46.64;99923.72;5117673;28;8866;-59
2023/04/06 08:30:01;;;;;;;;;12.50;12.00;;;;;9.97;46.53;99913.22;5117759;28;8946;-59
2023/04/06 08:32:29;;;;;;;;;15.00;15.00;;;;;10.10;46.27;99929.97;5117985;28;8925;-59
2023/04/06 08:34:57;;;;;;;;;9.00;9.00;;;;;10.20;46.36;99914.97;5118409;28;8847;-60
2023/04/06 08:37:25;;;;;;;;;8.00;7.25;;;;;10.31;45.53;99926.47;5117832;28;8879;-62
2023/04/06 08:39:54;;;;;;;;;9.00;7.00;;;;;10.46;46.19;99922.59;5118818;28;8852;-60
2023/04/06 08:42:22;;;;;;;;;9.00;9.00;;;;;10.60;45.49;99921.47;5117877;28;8844;-58
2023/04/06 08:44:50;;;;;;;;;9.75;9.00;;;;;10.73;45.56;99923.06;5116750;28;8835;-59
2023/04/06 08:47:19;;;;;;;;;11.00;10.75;;;;;10.82;45.53;99919.63;5116976;28;8881;-60
2023/04/06 08:49:51;;;;;;;;;10.00;9.25;;;;;10.94;45.09;99929.28;5117310;28;8838;-60
2023/04/06 08:52:19;;;;;;;;;12.00;11.50;;;;;11.08;44.79;99917.53;5118306;28;8835;-60
2023/04/06 08:54:50;;;;;;;;;11.00;9.00;;;;;11.18;45.03;99910.44;5117965;28;8827;-59
2023/04/06 08:57:18;;;;;;;;;13.00;12.75;;;;;11.29;44.74;99918.44;5117805;28;8921;-62
2023/04/06 08:59:45;;;;;;;;;12.50;10.00;;;;;11.40;44.67;99913.03;5117458;28;9560;-61
2023/04/06 09:02:14;;;;;;;;;15.00;13.00;;;;;11.53;44.53;99906.53;5117749;28;8929;-58
2023/04/06 09:04:42;;;;;;;;;9.00;9.00;;;;;11.67;44.24;99902.75;5117949;28;8832;-62
2023/04/06 09:07:10;;;;;;;;;3.75;2.00;;;;;11.85;43.69;99907.38;5117580;28;8958;-59
2023/04/06 09:09:43;;;;;;;;;8.00;6.00;;;;;12.06;43.79;99903.72;5118156;28;8816;-59
2023/04/06 09:12:12;;;;;;;;;15.50;13.25;;;;;12.25;43.77;99903.78;5117224;28;8856;-62
2023/04/06 09:14:42;;;;;;;;;9.00;8.00;;;;;12.51;43.27;99901.50;5117678;28;8847;-59
2023/04/06 09:17:10;;;;;;;;;3.00;3.00;;;;;12.84;42.44;99894.00;5117676;28;8844;-61
2023/04/06 09:19:38;;;;;;;;;12.00;11.50;;;;;13.20;42.52;99897.91;5117062;28;8897;-61
2023/04/06 09:22:07;;;;;;;;;6.50;5.00;;;;;13.46;42.08;99888.34;5117667;28;8974;-62
2023/04/06 09:24:35;;;;;;;;;19.25;15.75;;;;;13.68;41.20;99888.03;5116897;28;8831;-61
2023/04/06 09:27:03;;;;;;;;;11.00;11.00;;;;;13.90;41.14;99877.00;5117802;28;9913;-60
2023/04/06 09:29:31;;;;;;;;;11.00;10.25;;;;;14.28;41.01;99872.41;5117512;28;8838;-59
2023/04/06 09:32:00;;;;;;;;;12.00;12.00;;;;;14.69;40.53;99879.13;5117852;28;8954;-61
2023/04/06 09:34:28;;;;;;;;;9.50;9.00;;;;;15.00;40.08;99867.06;5117922;28;8843;-59
2023/04/06 09:36:56;;;;;;;;;8.00;7.00;;;;;15.13;39.62;99872.91;5117292;28;8982;-59
2023/04/06 09:39:24;;;;;;;;;7.50;7.00;;;;;15.15;39.81;99874.44;5117064;28;8836;-59
2023/04/06 09:41:52;;;;;;;;;17.25;14.50;;;;;15.07;39.61;99884.25;5116946;28;8893;-60
2023/04/06 09:44:20;;;;;;;;;14.50;13.50;;;;;14.84;39.72;99874.94;5116290;28;8844;-60
2023/04/06 09:46:48;;;;;;;;;15.00;14.00;;;;;14.62;39.33;99870.84;5116691;28;8951;-61
2023/04/06 09:49:27;;;;;;;;;10.50;8.00;;;;;14.68;38.93;99874.75;5116684;28;9548;-59
2023/04/06 09:51:56;;;;;;;;;14.75;12.50;;;;;14.84;38.32;99873.13;5116572;28;8924;-61
2023/04/06 09:54:25;;;;;;;;;12.25;12.25;;;;;14.90;38.54;99855.56;5116532;28;8839;-59
2023/04/06 09:56:52;;;;;;;;;12.50;10.50;;;;;15.03;38.00;99870.28;5116092;28;8832;-60
2023/04/06 09:59:21;;;;;;;;;11.75;11.50;;;;;15.23;38.01;99869.16;5116121;28;8991;-59
2023/04/06 10:01:49;;;;;;;;;11.50;10.00;;;;;15.46;37.73;99858.84;5116224;28;8836;-60
2023/04/06 10:04:17;;;;;;;;;17.00;15.75;;;;;15.64;37.45;99862.34;5115366;28;8866;-61
2023/04/06 10:06:47;;;;;;;;;13.75;11.50;;;;;15.79;37.44;99860.78;5115194;28;8850;-61
2023/04/06 10:09:15;;;;;;;;;10.50;10.00;;;;;16.02;37.00;99854.75;5114987;28;8839;-60
2023/04/06 10:11:43;;;;;;;;;10.50;9.50;;;;;16.17;37.38;99854.97;5114684;28;8851;-60
2023/04/06 10:14:12;;;;;;;;;13.00;13.00;;;;;16.30;37.12;99849.03;5115216;28;8820;-59
2023/04/06 10:16:40;;;;;;;;;16.00;15.00;;;;;16.53;36.80;99860.91;5115778;28;8836;-59
2023/04/06 10:19:08;;;;;;;;;14.00;13.50;;;;;16.50;36.89;99863.91;5114894;28;8867;-61
2023/04/06 10:21:37;;;;;;;;;18.25;15.75;;;;;16.47;36.96;99856.19;5114528;28;8828;-60
2023/04/06 10:24:05;;;;;;;;;12.50;11.25;;;;;16.57;36.87;99864.13;5114694;28;9675;-61
2023/04/06 10:26:34;;;;;;;;;23.00;19.00;;;;;16.56;36.62;99852.50;5113939;28;8850;-59
2023/04/06 10:29:02;;;;;;;;;15.75;14.50;;;;;16.45;36.27;99855.50;5113471;28;8875;-60
2023/04/06 10:31:31;;;;;;;;;12.00;12.00;;;;;16.36;36.15;99858.28;5113678;28;9762;-59
2023/04/06 10:33:59;;;;;;;;;16.50;13.50;;;;;16.25;36.56;99862.06;5114598;28;8861;-61
2023/04/06 10:36:27;;;;;;;;;16.50;15.75;;;;;16.22;36.81;99858.88;5114724;28;8851;-60
2023/04/06 10:38:55;;;;;;;;;17.00;14.00;;;;;16.18;36.73;99861.03;5115256;28;9603;-59
2023/04/06 10:41:25;;;;;;;;;15.00;13.00;;;;;16.13;36.44;99867.03;5115228;28;8851;-59
2023/04/06 10:43:53;;;;;;;;;19.25;16.25;;;;;15.92;36.69;99858.53;5114987;28;8820;-60
2023/04/06 10:46:21;;;;;;;;;21.00;19.00;;;;;15.66;36.47;99857.66;5115044;28;8858;-60
2023/04/06 10:48:50;;;;;;;;;18.75;16.00;;;;;15.49;37.05;99850.47;5115783;28;8840;-61
2023/04/06 10:51:18;;;;;;;;;15.00;13.00;;;;;15.49;37.21;99864.72;5115324;28;8863;-59
2023/04/06 10:53:47;;;;;;;;;15.50;15.50;;;;;15.50;37.18;99854.84;5115004;28;8823;-62
2023/04/06 10:56:15;;;;;;;;;19.50;18.50;;;;;15.54;37.50;99851.69;5115212;28;8836;-60
2023/04/06 10:58:45;;;;;;;;;16.00;15.00;;;;;15.59;36.72;99859.28;5114551;28;8844;-61
2023/04/06 11:01:13;;;;;;;;;18.00;16.00;;;;;15.62;36.54;99857.13;5114479;28;8827;-60
2023/04/06 11:03:41;;;;;;;;;23.75;19.75;;;;;15.62;36.49;99861.66;5115199;28;8893;-62
2023/04/06 11:06:09;;;;;;;;;20.75;18.50;;;;;15.71;36.21;99855.34;5114767;28;8898;-60
2023/04/06 11:08:38;;;;;;;;;17.50;15.50;;;;;15.83;36.31;99848.72;5114306;28;8937;-61
2023/04/06 11:11:07;;;;;;;;;20.00;18.50;;;;;15.92;36.10;99853.97;5114285;28;8848;-58
2023/04/06 11:13:36;;;;;;;;;20.50;17.00;;;;;15.96;35.70;99835.72;5114343;28;8809;-59
2023/04/06 11:16:04;;;;;;;;;13.75;13.50;;;;;15.94;35.65;99843.09;5114396;28;8831;-59
2023/04/06 11:18:31;;;;;;;;;11.00;7.00;;;;;15.92;36.27;99840.56;5113893;28;8901;-60
2023/04/06 11:21:00;;;;;;;;;23.00;21.25;;;;;16.02;35.81;99845.81;5113057;28;8824;-59
2023/04/06 11:23:28;;;;;;;;;19.00;16.00;;;;;16.08;35.59;99846.03;5114157;28;8839;-60
2023/04/06 11:25:56;;;;;;;;;22.50;19.50;;;;;16.23;36.00;99844.44;5114404;28;8831;-59
2023/04/06 11:28:24;;;;;;;;;18.25;16.00;;;;;16.47;35.11;99849.97;5114648;28;8856;-60
2023/04/06 11:30:52;;;;;;;;;14.00;12.50;;;;;16.69;35.12;99843.97;5114687;28;8851;-61
2023/04/06 11:33:20;;;;;;;;;18.50;17.50;;;;;16.80;34.31;99838.31;5114481;28;8845;-59
2023/04/06 11:35:48;;;;;;;;;16.00;14.75;;;;;16.81;34.63;99838.16;5114862;28;8832;-60
2023/04/06 11:38:16;;;;;;;;;17.00;16.25;;;;;16.92;34.60;99832.47;5114849;28;8940;-61
2023/04/06 11:40:44;;;;;;;;;16.00;15.00;;;;;17.20;34.28;99823.09;5114462;28;8840;-60
2023/04/06 11:43:13;;;;;;;;;16.00;14.25;;;;;17.74;33.92;99813.50;5114927;28;8832;-61